Terminal Aerodrome Forecast
Issued by NWS

Home | Current Version | Previous Version | Text Only | Print | Product List | Glossary On
Versions: 1 2 3 4 5 6 7 8 9 10 11 12 13
000
FTAK31 PAJN 300535
TAFASI
TAF
PASI 300535Z 3006/3106 16006KT P6SM VCSH BKN025 OVC040
      TEMPO 3006/3010 2SM +SHRA BR BKN015 OVC025
     FM301400 14008KT P6SM VCSH OVC040
     FM302000 16020G35KT 5SM RA BR SCT015 OVC030
     FM310200 22015G28KT 5SM -RA BR SCT015 OVC030=

USA.gov is the U.S. government's official web portal to all federal, state and local government web resources and services.